sensor_id;sensor_type;location;lat;lon;timestamp;temperature;humidity
11132;DHT22;5620;53.570;9.718;2023-07-13T00:00:04;16.30;99.90
11132;DHT22;5620;53.570;9.718;2023-07-13T00:02:32;16.30;99.90
11132;DHT22;5620;53.570;9.718;2023-07-13T00:04:59;16.30;1.00
11132;DHT22;5620;53.570;9.718;2023-07-13T00:07:24;16.20;1.00
11132;DHT22;5620;53.570;9.718;2023-07-13T00:09:51;16.20;1.00
11132;DHT22;5620;53.570;9.718;2023-07-13T00:14:52;16.10;1.00
11132;DHT22;5620;53.570;9.718;2023-07-13T00:17:18;16.10;1.00
11132;DHT22;5620;53.570;9.718;2023-07-13T00:19:43;16.10;1.00
11132;DHT22;5620;53.570;9.718;2023-07-13T00:22:10;16.10;1.00
11132;DHT22;5620;53.570;9.718;2023-07-13T00:24:36;16.10;1.00
11132;DHT22;5620;53.570;9.718;2023-07-13T00:27:03;16.00;7.40
11132;DHT22;5620;53.570;9.718;2023-07-13T00:29:30;16.00;31.70
11132;DHT22;5620;53.570;9.718;2023-07-13T00:31:56;16.00;57.60
11132;DHT22;5620;53.570;9.718;2023-07-13T00:34:22;16.00;91.20
11132;DHT22;5620;53.570;9.718;2023-07-13T00:36:59;16.00;97.40
11132;DHT22;5620;53.570;9.718;2023-07-13T00:39:27;16.00;99.90
11132;DHT22;5620;53.570;9.718;2023-07-13T00:41:52;16.00;99.90
11132;DHT22;5620;53.570;9.718;2023-07-13T00:44:19;16.00;99.90
11132;DHT22;5620;53.570;9.718;2023-07-13T00:46:45;16.00;99.90
11132;DHT22;5620;53.570;9.718;2023-07-13T00:49:14;16.00;99.90
11132;DHT22;5620;53.570;9.718;2023-07-13T00:52:03;15.90;99.90
11132;DHT22;5620;53.570;9.718;2023-07-13T00:54:43;16.00;99.90
11132;DHT22;5620;53.570;9.718;2023-07-13T00:57:14;15.90;99.90
11132;DHT22;5620;53.570;9.718;2023-07-13T00:59:42;15.90;99.90
11132;DHT22;5620;53.570;9.718;2023-07-13T01:02:10;15.90;99.90
11132;DHT22;5620;53.570;9.718;2023-07-13T01:04:37;15.80;99.90
11132;DHT22;5620;53.570;9.718;2023-07-13T01:07:04;15.80;99.90
11132;DHT22;5620;53.570;9.718;2023-07-13T01:09:31;15.80;99.90
11132;DHT22;5620;53.570;9.718;2023-07-13T01:11:58;15.80;99.90
11132;DHT22;5620;53.570;9.718;2023-07-13T01:14:24;15.80;99.90
11132;DHT22;5620;53.570;9.718;2023-07-13T01:16:50;15.80;99.90
11132;DHT22;5620;53.570;9.718;2023-07-13T01:22:13;15.80;99.90
11132;DHT22;5620;53.570;9.718;2023-07-13T01:24:43;15.80;99.90
11132;DHT22;5620;53.570;9.718;2023-07-13T01:27:12;15.80;99.90
11132;DHT22;5620;53.570;9.718;2023-07-13T01:29:41;15.80;99.90
11132;DHT22;5620;53.570;9.718;2023-07-13T01:32:11;15.80;99.90
11132;DHT22;5620;53.570;9.718;2023-07-13T01:34:37;15.80;99.90
11132;DHT22;5620;53.570;9.718;2023-07-13T01:37:05;15.70;99.90
11132;DHT22;5620;53.570;9.718;2023-07-13T01:39:30;15.70;99.90
11132;DHT22;5620;53.570;9.718;2023-07-13T01:41:57;15.70;99.90
11132;DHT22;5620;53.570;9.718;2023-07-13T01:44:24;15.70;99.90
11132;DHT22;5620;53.570;9.718;2023-07-13T01:46:52;15.60;99.90
11132;DHT22;5620;53.570;9.718;2023-07-13T01:49:19;15.60;99.90
11132;DHT22;5620;53.570;9.718;2023-07-13T01:51:46;15.60;99.90
11132;DHT22;5620;53.570;9.718;2023-07-13T01:54:14;15.50;99.90
11132;DHT22;5620;53.570;9.718;2023-07-13T01:56:40;15.50;99.90
11132;DHT22;5620;53.570;9.718;2023-07-13T01:59:07;15.50;99.90
11132;DHT22;5620;53.570;9.718;2023-07-13T02:01:36;15.50;99.90
11132;DHT22;5620;53.570;9.718;2023-07-13T02:04:02;15.50;1.00
11132;DHT22;5620;53.570;9.718;2023-07-13T02:06:29;15.40;99.90
11132;DHT22;5620;53.570;9.718;2023-07-13T02:08:56;15.40;1.00
11132;DHT22;5620;53.570;9.718;2023-07-13T02:11:21;15.40;1.00
11132;DHT22;5620;53.570;9.718;2023-07-13T02:13:47;15.40;1.00
11132;DHT22;5620;53.570;9.718;2023-07-13T02:16:12;15.30;1.00
11132;DHT22;5620;53.570;9.718;2023-07-13T02:18:38;15.30;1.00
11132;DHT22;5620;53.570;9.718;2023-07-13T02:21:04;15.30;1.00
11132;DHT22;5620;53.570;9.718;2023-07-13T02:23:31;15.30;1.00
11132;DHT22;5620;53.570;9.718;2023-07-13T02:25:57;15.20;1.00
11132;DHT22;5620;53.570;9.718;2023-07-13T02:28:22;15.20;1.00
11132;DHT22;5620;53.570;9.718;2023-07-13T02:30:48;15.20;1.00
11132;DHT22;5620;53.570;9.718;2023-07-13T02:33:13;15.20;1.00
11132;DHT22;5620;53.570;9.718;2023-07-13T02:35:40;15.10;1.00
11132;DHT22;5620;53.570;9.718;2023-07-13T02:38:07;15.10;1.00
11132;DHT22;5620;53.570;9.718;2023-07-13T02:40:34;15.10;1.00
11132;DHT22;5620;53.570;9.718;2023-07-13T02:43:03;15.10;1.00
11132;DHT22;5620;53.570;9.718;2023-07-13T02:45:28;15.00;1.00
11132;DHT22;5620;53.570;9.718;2023-07-13T02:47:56;15.00;1.00
11132;DHT22;5620;53.570;9.718;2023-07-13T02:50:22;15.00;1.00
11132;DHT22;5620;53.570;9.718;2023-07-13T02:52:48;15.00;1.00
11132;DHT22;5620;53.570;9.718;2023-07-13T02:55:14;15.00;1.00
11132;DHT22;5620;53.570;9.718;2023-07-13T02:57:41;15.00;1.00
11132;DHT22;5620;53.570;9.718;2023-07-13T03:00:07;15.00;1.00
11132;DHT22;5620;53.570;9.718;2023-07-13T03:02:35;15.00;1.00
11132;DHT22;5620;53.570;9.718;2023-07-13T03:05:03;14.90;1.00
11132;DHT22;5620;53.570;9.718;2023-07-13T03:07:31;14.90;1.00
11132;DHT22;5620;53.570;9.718;2023-07-13T03:09:57;14.90;1.00
11132;DHT22;5620;53.570;9.718;2023-07-13T03:12:25;14.90;1.00
11132;DHT22;5620;53.570;9.718;2023-07-13T03:14:52;14.90;1.00
11132;DHT22;5620;53.570;9.718;2023-07-13T03:17:19;14.90;1.00
11132;DHT22;5620;53.570;9.718;2023-07-13T03:19:46;14.90;1.00
11132;DHT22;5620;53.570;9.718;2023-07-13T03:22:12;14.90;1.00
11132;DHT22;5620;53.570;9.718;2023-07-13T03:24:39;14.90;1.00
11132;DHT22;5620;53.570;9.718;2023-07-13T03:27:07;14.90;1.00
11132;DHT22;5620;53.570;9.718;2023-07-13T03:29:33;14.90;1.00
11132;DHT22;5620;53.570;9.718;2023-07-13T03:32:01;14.90;1.00
11132;DHT22;5620;53.570;9.718;2023-07-13T03:34:27;14.90;1.00
11132;DHT22;5620;53.570;9.718;2023-07-13T03:36:56;14.90;1.00
11132;DHT22;5620;53.570;9.718;2023-07-13T03:39:24;15.00;1.00
11132;DHT22;5620;53.570;9.718;2023-07-13T03:41:51;15.00;1.00
11132;DHT22;5620;53.570;9.718;2023-07-13T03:44:17;15.00;1.00
11132;DHT22;5620;53.570;9.718;2023-07-13T03:46:44;14.90;1.00
11132;DHT22;5620;53.570;9.718;2023-07-13T03:49:11;15.00;1.00
11132;DHT22;5620;53.570;9.718;2023-07-13T03:51:36;15.00;1.00
11132;DHT22;5620;53.570;9.718;2023-07-13T03:54:02;15.00;1.00
11132;DHT22;5620;53.570;9.718;2023-07-13T03:56:30;15.00;1.00
11132;DHT22;5620;53.570;9.718;2023-07-13T03:58:57;15.00;1.00
11132;DHT22;5620;53.570;9.718;2023-07-13T04:01:24;15.00;1.00
11132;DHT22;5620;53.570;9.718;2023-07-13T04:03:51;15.00;1.00
11132;DHT22;5620;53.570;9.718;2023-07-13T04:06:20;15.00;1.00
11132;DHT22;5620;53.570;9.718;2023-07-13T04:08:49;15.10;1.00
11132;DHT22;5620;53.570;9.718;2023-07-13T04:11:17;15.10;1.00
11132;DHT22;5620;53.570;9.718;2023-07-13T04:13:44;15.10;1.00
11132;DHT22;5620;53.570;9.718;2023-07-13T04:16:10;15.10;99.90
11132;DHT22;5620;53.570;9.718;2023-07-13T04:18:35;15.10;99.90
11132;DHT22;5620;53.570;9.718;2023-07-13T04:21:01;15.10;99.90
11132;DHT22;5620;53.570;9.718;2023-07-13T04:23:26;15.10;99.90
11132;DHT22;5620;53.570;9.718;2023-07-13T04:25:53;15.20;99.90
11132;DHT22;5620;53.570;9.718;2023-07-13T04:28:22;15.20;99.90
11132;DHT22;5620;53.570;9.718;2023-07-13T04:30:48;15.30;99.90
11132;DHT22;5620;53.570;9.718;2023-07-13T04:33:14;15.30;99.90
11132;DHT22;5620;53.570;9.718;2023-07-13T04:35:39;15.40;99.90
11132;DHT22;5620;53.570;9.718;2023-07-13T04:38:05;15.50;99.90
11132;DHT22;5620;53.570;9.718;2023-07-13T04:40:31;15.50;99.90
11132;DHT22;5620;53.570;9.718;2023-07-13T04:42:57;15.60;99.90
11132;DHT22;5620;53.570;9.718;2023-07-13T04:45:26;15.70;99.90
11132;DHT22;5620;53.570;9.718;2023-07-13T04:47:51;15.80;99.90
11132;DHT22;5620;53.570;9.718;2023-07-13T04:50:17;15.80;99.90
11132;DHT22;5620;53.570;9.718;2023-07-13T04:52:43;16.00;99.90
11132;DHT22;5620;53.570;9.718;2023-07-13T04:55:10;16.20;99.90
11132;DHT22;5620;53.570;9.718;2023-07-13T04:57:37;16.30;99.90
11132;DHT22;5620;53.570;9.718;2023-07-13T05:00:07;16.60;99.90
11132;DHT22;5620;53.570;9.718;2023-07-13T05:02:33;16.80;99.90
11132;DHT22;5620;53.570;9.718;2023-07-13T05:04:59;17.00;99.90
11132;DHT22;5620;53.570;9.718;2023-07-13T05:07:26;17.20;99.90
11132;DHT22;5620;53.570;9.718;2023-07-13T05:09:52;17.50;46.10
11132;DHT22;5620;53.570;9.718;2023-07-13T05:12:19;17.60;1.00
11132;DHT22;5620;53.570;9.718;2023-07-13T05:14:47;17.70;99.90
11132;DHT22;5620;53.570;9.718;2023-07-13T05:17:13;17.80;99.90
11132;DHT22;5620;53.570;9.718;2023-07-13T05:19:39;17.90;99.90
11132;DHT22;5620;53.570;9.718;2023-07-13T05:22:09;17.90;99.90
11132;DHT22;5620;53.570;9.718;2023-07-13T05:24:37;18.00;83.00
11132;DHT22;5620;53.570;9.718;2023-07-13T05:27:03;18.00;78.70
11132;DHT22;5620;53.570;9.718;2023-07-13T05:29:29;18.00;93.20
11132;DHT22;5620;53.570;9.718;2023-07-13T05:31:55;18.10;62.70
11132;DHT22;5620;53.570;9.718;2023-07-13T05:34:21;18.20;1.00
11132;DHT22;5620;53.570;9.718;2023-07-13T05:36:49;18.20;1.00
11132;DHT22;5620;53.570;9.718;2023-07-13T05:39:16;18.20;99.90
11132;DHT22;5620;53.570;9.718;2023-07-13T05:41:42;18.20;99.90
11132;DHT22;5620;53.570;9.718;2023-07-13T05:44:08;18.20;99.90
11132;DHT22;5620;53.570;9.718;2023-07-13T05:46:33;18.20;1.00
11132;DHT22;5620;53.570;9.718;2023-07-13T05:48:59;18.20;99.90
11132;DHT22;5620;53.570;9.718;2023-07-13T05:51:26;18.20;99.90
11132;DHT22;5620;53.570;9.718;2023-07-13T05:53:53;18.10;18.60
11132;DHT22;5620;53.570;9.718;2023-07-13T05:56:19;18.20;1.00
11132;DHT22;5620;53.570;9.718;2023-07-13T05:58:48;18.30;61.20
11132;DHT22;5620;53.570;9.718;2023-07-13T06:01:15;18.40;1.00
11132;DHT22;5620;53.570;9.718;2023-07-13T06:03:40;18.50;99.90
11132;DHT22;5620;53.570;9.718;2023-07-13T06:06:09;18.50;1.00
11132;DHT22;5620;53.570;9.718;2023-07-13T06:08:36;18.60;99.90
11132;DHT22;5620;53.570;9.718;2023-07-13T06:11:16;18.60;1.00
11132;DHT22;5620;53.570;9.718;2023-07-13T06:13:43;18.70;99.90
11132;DHT22;5620;53.570;9.718;2023-07-13T06:16:10;18.80;99.90
11132;DHT22;5620;53.570;9.718;2023-07-13T06:18:39;18.90;99.90
11132;DHT22;5620;53.570;9.718;2023-07-13T06:21:16;19.10;61.30
11132;DHT22;5620;53.570;9.718;2023-07-13T06:23:42;19.30;1.00
11132;DHT22;5620;53.570;9.718;2023-07-13T06:26:09;19.50;99.90
11132;DHT22;5620;53.570;9.718;2023-07-13T06:28:35;19.50;1.00
11132;DHT22;5620;53.570;9.718;2023-07-13T06:31:05;19.60;1.00
11132;DHT22;5620;53.570;9.718;2023-07-13T06:33:31;19.60;99.90
11132;DHT22;5620;53.570;9.718;2023-07-13T06:35:57;19.70;99.90
11132;DHT22;5620;53.570;9.718;2023-07-13T06:38:24;19.80;91.60
11132;DHT22;5620;53.570;9.718;2023-07-13T06:40:51;20.00;3.20
11132;DHT22;5620;53.570;9.718;2023-07-13T06:43:17;19.90;1.00
11132;DHT22;5620;53.570;9.718;2023-07-13T06:45:45;19.90;99.90
11132;DHT22;5620;53.570;9.718;2023-07-13T06:48:11;20.10;1.00
11132;DHT22;5620;53.570;9.718;2023-07-13T06:50:37;20.30;99.90
11132;DHT22;5620;53.570;9.718;2023-07-13T06:53:03;20.40;99.90
11132;DHT22;5620;53.570;9.718;2023-07-13T06:55:28;20.50;90.40
11132;DHT22;5620;53.570;9.718;2023-07-13T06:57:55;20.60;1.00
11132;DHT22;5620;53.570;9.718;2023-07-13T07:00:22;20.70;1.00
11132;DHT22;5620;53.570;9.718;2023-07-13T07:02:48;20.90;1.00
11132;DHT22;5620;53.570;9.718;2023-07-13T07:05:15;21.00;99.90
11132;DHT22;5620;53.570;9.718;2023-07-13T07:07:41;21.10;99.90
11132;DHT22;5620;53.570;9.718;2023-07-13T07:10:08;21.20;99.90
11132;DHT22;5620;53.570;9.718;2023-07-13T07:12:33;21.30;33.30
11132;DHT22;5620;53.570;9.718;2023-07-13T07:14:59;21.40;1.00
11132;DHT22;5620;53.570;9.718;2023-07-13T07:17:25;21.30;1.00
11132;DHT22;5620;53.570;9.718;2023-07-13T07:19:53;21.20;1.00
11132;DHT22;5620;53.570;9.718;2023-07-13T07:22:21;21.20;1.00
11132;DHT22;5620;53.570;9.718;2023-07-13T07:24:47;21.30;1.00
11132;DHT22;5620;53.570;9.718;2023-07-13T07:27:12;21.40;1.00
11132;DHT22;5620;53.570;9.718;2023-07-13T07:29:38;21.50;1.00
11132;DHT22;5620;53.570;9.718;2023-07-13T07:32:05;21.70;99.90
11132;DHT22;5620;53.570;9.718;2023-07-13T07:34:32;21.70;99.90
11132;DHT22;5620;53.570;9.718;2023-07-13T07:37:01;21.80;99.90
11132;DHT22;5620;53.570;9.718;2023-07-13T07:39:28;22.00;99.90
11132;DHT22;5620;53.570;9.718;2023-07-13T07:41:55;22.10;99.90
11132;DHT22;5620;53.570;9.718;2023-07-13T07:44:23;22.10;99.90
11132;DHT22;5620;53.570;9.718;2023-07-13T07:46:50;21.90;99.90
11132;DHT22;5620;53.570;9.718;2023-07-13T07:49:17;21.70;99.90
11132;DHT22;5620;53.570;9.718;2023-07-13T07:51:42;21.80;99.90
11132;DHT22;5620;53.570;9.718;2023-07-13T07:54:09;22.00;99.90
11132;DHT22;5620;53.570;9.718;2023-07-13T07:56:37;22.20;99.90
11132;DHT22;5620;53.570;9.718;2023-07-13T07:59:02;22.30;87.90
11132;DHT22;5620;53.570;9.718;2023-07-13T08:01:28;22.30;48.20
11132;DHT22;5620;53.570;9.718;2023-07-13T08:03:53;22.20;24.50
11132;DHT22;5620;53.570;9.718;2023-07-13T08:06:19;22.00;1.00
11132;DHT22;5620;53.570;9.718;2023-07-13T08:08:45;21.80;1.00
11132;DHT22;5620;53.570;9.718;2023-07-13T08:11:11;21.80;1.00
11132;DHT22;5620;53.570;9.718;2023-07-13T08:13:36;21.70;1.00
11132;DHT22;5620;53.570;9.718;2023-07-13T08:16:06;21.60;1.00
11132;DHT22;5620;53.570;9.718;2023-07-13T08:18:33;21.60;1.00
11132;DHT22;5620;53.570;9.718;2023-07-13T08:21:06;21.70;1.00
11132;DHT22;5620;53.570;9.718;2023-07-13T08:23:33;21.90;1.00
11132;DHT22;5620;53.570;9.718;2023-07-13T08:25:59;22.00;1.00
11132;DHT22;5620;53.570;9.718;2023-07-13T08:28:26;21.70;1.00
11132;DHT22;5620;53.570;9.718;2023-07-13T08:30:54;21.30;1.00
11132;DHT22;5620;53.570;9.718;2023-07-13T08:33:20;21.00;1.00
11132;DHT22;5620;53.570;9.718;2023-07-13T08:35:50;20.80;1.00
11132;DHT22;5620;53.570;9.718;2023-07-13T08:38:16;20.70;1.00
11132;DHT22;5620;53.570;9.718;2023-07-13T08:40:43;20.60;1.00
11132;DHT22;5620;53.570;9.718;2023-07-13T08:43:16;20.80;33.30
11132;DHT22;5620;53.570;9.718;2023-07-13T08:46:13;20.70;1.00
11132;DHT22;5620;53.570;9.718;2023-07-13T08:48:49;20.70;27.90
11132;DHT22;5620;53.570;9.718;2023-07-13T08:51:45;21.00;69.30
11132;DHT22;5620;53.570;9.718;2023-07-13T08:54:29;21.40;36.20
11132;DHT22;5620;53.570;9.718;2023-07-13T08:57:10;22.10;24.80
11132;DHT22;5620;53.570;9.718;2023-07-13T08:59:37;22.70;1.00
11132;DHT22;5620;53.570;9.718;2023-07-13T09:05:01;23.00;1.00
11132;DHT22;5620;53.570;9.718;2023-07-13T09:10:28;23.00;1.00
11132;DHT22;5620;53.570;9.718;2023-07-13T09:13:18;22.90;99.90
11132;DHT22;5620;53.570;9.718;2023-07-13T09:15:49;23.10;99.90
11132;DHT22;5620;53.570;9.718;2023-07-13T09:18:40;23.50;99.90
11132;DHT22;5620;53.570;9.718;2023-07-13T09:21:10;23.60;99.90
11132;DHT22;5620;53.570;9.718;2023-07-13T09:23:39;23.30;99.90
11132;DHT22;5620;53.570;9.718;2023-07-13T09:28:38;22.80;99.90
11132;DHT22;5620;53.570;9.718;2023-07-13T09:33:51;23.00;99.90
11132;DHT22;5620;53.570;9.718;2023-07-13T09:36:35;23.10;99.90
11132;DHT22;5620;53.570;9.718;2023-07-13T09:44:37;23.90;99.90
11132;DHT22;5620;53.570;9.718;2023-07-13T09:47:20;24.00;99.90
11132;DHT22;5620;53.570;9.718;2023-07-13T09:49:46;24.20;99.90
11132;DHT22;5620;53.570;9.718;2023-07-13T09:52:14;24.20;99.90
11132;DHT22;5620;53.570;9.718;2023-07-13T09:54:46;24.10;99.90
11132;DHT22;5620;53.570;9.718;2023-07-13T09:57:14;23.80;99.90
11132;DHT22;5620;53.570;9.718;2023-07-13T09:59:45;23.60;99.90
11132;DHT22;5620;53.570;9.718;2023-07-13T10:02:32;23.70;99.90
11132;DHT22;5620;53.570;9.718;2023-07-13T10:05:04;23.70;99.90
11132;DHT22;5620;53.570;9.718;2023-07-13T10:07:31;23.40;99.90
11132;DHT22;5620;53.570;9.718;2023-07-13T10:10:00;23.40;99.90
11132;DHT22;5620;53.570;9.718;2023-07-13T10:12:29;23.60;99.90
11132;DHT22;5620;53.570;9.718;2023-07-13T10:14:57;23.80;99.90
11132;DHT22;5620;53.570;9.718;2023-07-13T10:17:29;24.20;98.40
11132;DHT22;5620;53.570;9.718;2023-07-13T10:19:55;24.60;92.60
11132;DHT22;5620;53.570;9.718;2023-07-13T10:22:25;25.20;88.40
11132;DHT22;5620;53.570;9.718;2023-07-13T10:24:53;25.60;70.30
11132;DHT22;5620;53.570;9.718;2023-07-13T10:27:33;25.70;1.00
11132;DHT22;5620;53.570;9.718;2023-07-13T10:32:51;25.60;1.00
11132;DHT22;5620;53.570;9.718;2023-07-13T10:35:20;25.50;1.00
11132;DHT22;5620;53.570;9.718;2023-07-13T10:38:04;25.40;1.00
11132;DHT22;5620;53.570;9.718;2023-07-13T10:40:37;25.80;1.00
11132;DHT22;5620;53.570;9.718;2023-07-13T10:43:07;26.00;1.00
11132;DHT22;5620;53.570;9.718;2023-07-13T10:45:35;26.20;1.00
11132;DHT22;5620;53.570;9.718;2023-07-13T10:48:01;26.50;1.00
11132;DHT22;5620;53.570;9.718;2023-07-13T10:50:31;26.70;1.00
11132;DHT22;5620;53.570;9.718;2023-07-13T10:54:10;26.80;1.00
11132;DHT22;5620;53.570;9.718;2023-07-13T10:58:43;26.60;1.00
11132;DHT22;5620;53.570;9.718;2023-07-13T11:01:16;26.10;1.00
11132;DHT22;5620;53.570;9.718;2023-07-13T11:04:01;25.70;1.00
11132;DHT22;5620;53.570;9.718;2023-07-13T11:09:32;25.50;1.00
11132;DHT22;5620;53.570;9.718;2023-07-13T11:12:10;25.70;1.00
11132;DHT22;5620;53.570;9.718;2023-07-13T11:15:04;25.80;1.00
11132;DHT22;5620;53.570;9.718;2023-07-13T11:17:37;26.10;1.00
11132;DHT22;5620;53.570;9.718;2023-07-13T11:22:52;25.60;1.00
11132;DHT22;5620;53.570;9.718;2023-07-13T11:25:29;26.40;1.00
11132;DHT22;5620;53.570;9.718;2023-07-13T11:30:37;27.90;1.00
11132;DHT22;5620;53.570;9.718;2023-07-13T11:33:24;27.70;1.00
11132;DHT22;5620;53.570;9.718;2023-07-13T11:36:16;28.50;1.00
11132;DHT22;5620;53.570;9.718;2023-07-13T11:39:02;29.90;1.00
11132;DHT22;5620;53.570;9.718;2023-07-13T11:42:15;29.40;1.00
11132;DHT22;5620;53.570;9.718;2023-07-13T11:44:25;28.70;99.90
11132;DHT22;5620;53.570;9.718;2023-07-13T11:46:58;27.90;99.90
11132;DHT22;5620;53.570;9.718;2023-07-13T11:49:28;27.00;99.90
11132;DHT22;5620;53.570;9.718;2023-07-13T11:51:56;26.10;99.90
11132;DHT22;5620;53.570;9.718;2023-07-13T11:54:43;25.10;99.90
11132;DHT22;5620;53.570;9.718;2023-07-13T11:59:44;23.20;1.00
11132;DHT22;5620;53.570;9.718;2023-07-13T12:02:39;21.10;1.00
11132;DHT22;5620;53.570;9.718;2023-07-13T12:05:12;19.40;1.00
11132;DHT22;5620;53.570;9.718;2023-07-13T12:07:41;18.40;99.00
11132;DHT22;5620;53.570;9.718;2023-07-13T12:13:12;17.30;92.70
11132;DHT22;5620;53.570;9.718;2023-07-13T12:15:58;17.00;99.90
11132;DHT22;5620;53.570;9.718;2023-07-13T12:18:30;17.30;1.00
11132;DHT22;5620;53.570;9.718;2023-07-13T12:21:00;17.70;25.60
11132;DHT22;5620;53.570;9.718;2023-07-13T12:23:35;18.40;1.00
11132;DHT22;5620;53.570;9.718;2023-07-13T12:26:04;19.50;1.00
11132;DHT22;5620;53.570;9.718;2023-07-13T12:28:34;20.80;6.70
11132;DHT22;5620;53.570;9.718;2023-07-13T12:31:03;21.60;99.90
11132;DHT22;5620;53.570;9.718;2023-07-13T12:33:30;21.60;94.40
11132;DHT22;5620;53.570;9.718;2023-07-13T12:36:00;21.40;1.00
11132;DHT22;5620;53.570;9.718;2023-07-13T12:38:26;21.40;58.10
11132;DHT22;5620;53.570;9.718;2023-07-13T12:40:53;21.30;99.90
11132;DHT22;5620;53.570;9.718;2023-07-13T12:43:24;21.00;99.90
11132;DHT22;5620;53.570;9.718;2023-07-13T12:46:20;20.40;20.00
11132;DHT22;5620;53.570;9.718;2023-07-13T12:48:53;19.50;1.00
11132;DHT22;5620;53.570;9.718;2023-07-13T12:51:22;18.90;5.90
11132;DHT22;5620;53.570;9.718;2023-07-13T12:54:14;18.50;1.00
11132;DHT22;5620;53.570;9.718;2023-07-13T12:56:37;18.40;99.90
11132;DHT22;5620;53.570;9.718;2023-07-13T12:59:04;18.90;99.90
11132;DHT22;5620;53.570;9.718;2023-07-13T13:01:34;19.40;99.90
11132;DHT22;5620;53.570;9.718;2023-07-13T13:04:02;19.90;1.00
11132;DHT22;5620;53.570;9.718;2023-07-13T13:06:30;20.20;99.90
11132;DHT22;5620;53.570;9.718;2023-07-13T13:08:57;20.30;99.90
11132;DHT22;5620;53.570;9.718;2023-07-13T13:11:24;20.30;1.00
11132;DHT22;5620;53.570;9.718;2023-07-13T13:13:50;20.30;99.90
11132;DHT22;5620;53.570;9.718;2023-07-13T13:16:43;20.30;78.10
11132;DHT22;5620;53.570;9.718;2023-07-13T13:19:20;20.20;1.00
11132;DHT22;5620;53.570;9.718;2023-07-13T13:21:46;20.00;1.00
11132;DHT22;5620;53.570;9.718;2023-07-13T13:24:14;20.20;99.90
11132;DHT22;5620;53.570;9.718;2023-07-13T13:26:40;20.30;64.00
11132;DHT22;5620;53.570;9.718;2023-07-13T13:29:25;20.50;99.90
11132;DHT22;5620;53.570;9.718;2023-07-13T13:31:51;20.70;1.00
11132;DHT22;5620;53.570;9.718;2023-07-13T13:34:19;21.00;1.00
11132;DHT22;5620;53.570;9.718;2023-07-13T13:36:46;21.30;1.00
11132;DHT22;5620;53.570;9.718;2023-07-13T13:39:33;21.20;99.90
11132;DHT22;5620;53.570;9.718;2023-07-13T13:41:59;20.90;99.90
11132;DHT22;5620;53.570;9.718;2023-07-13T13:44:25;21.00;1.00
11132;DHT22;5620;53.570;9.718;2023-07-13T13:46:56;21.20;99.90
11132;DHT22;5620;53.570;9.718;2023-07-13T13:49:25;21.50;1.00
11132;DHT22;5620;53.570;9.718;2023-07-13T13:51:54;22.30;1.00
11132;DHT22;5620;53.570;9.718;2023-07-13T13:54:32;25.00;97.20
11132;DHT22;5620;53.570;9.718;2023-07-13T13:56:58;29.30;1.00
11132;DHT22;5620;53.570;9.718;2023-07-13T13:59:24;33.30;99.90
11132;DHT22;5620;53.570;9.718;2023-07-13T14:01:51;36.50;1.00
11132;DHT22;5620;53.570;9.718;2023-07-13T14:04:22;38.70;99.90
11132;DHT22;5620;53.570;9.718;2023-07-13T14:06:48;40.40;99.90
11132;DHT22;5620;53.570;9.718;2023-07-13T14:09:16;41.40;99.90
11132;DHT22;5620;53.570;9.718;2023-07-13T14:11:44;40.20;99.90
11132;DHT22;5620;53.570;9.718;2023-07-13T14:14:16;37.20;99.90
11132;DHT22;5620;53.570;9.718;2023-07-13T14:16:47;34.60;99.90
11132;DHT22;5620;53.570;9.718;2023-07-13T14:19:14;31.90;99.90
11132;DHT22;5620;53.570;9.718;2023-07-13T14:21:41;29.90;99.90
11132;DHT22;5620;53.570;9.718;2023-07-13T14:24:08;27.60;99.90
11132;DHT22;5620;53.570;9.718;2023-07-13T14:26:40;24.90;1.00
11132;DHT22;5620;53.570;9.718;2023-07-13T14:29:14;22.90;1.00
11132;DHT22;5620;53.570;9.718;2023-07-13T14:31:40;21.40;1.00
11132;DHT22;5620;53.570;9.718;2023-07-13T14:34:09;20.60;1.00
11132;DHT22;5620;53.570;9.718;2023-07-13T14:36:42;20.50;1.00
11132;DHT22;5620;53.570;9.718;2023-07-13T14:39:19;20.80;1.00
11132;DHT22;5620;53.570;9.718;2023-07-13T14:41:45;21.10;99.90
11132;DHT22;5620;53.570;9.718;2023-07-13T14:44:17;21.60;99.90
11132;DHT22;5620;53.570;9.718;2023-07-13T14:46:45;22.30;1.00
11132;DHT22;5620;53.570;9.718;2023-07-13T14:49:25;23.90;1.00
11132;DHT22;5620;53.570;9.718;2023-07-13T14:51:54;26.80;63.00
11132;DHT22;5620;53.570;9.718;2023-07-13T14:54:19;27.00;1.00
11132;DHT22;5620;53.570;9.718;2023-07-13T14:56:49;26.70;1.00
11132;DHT22;5620;53.570;9.718;2023-07-13T14:59:16;26.50;1.00
11132;DHT22;5620;53.570;9.718;2023-07-13T15:01:42;27.40;1.00
11132;DHT22;5620;53.570;9.718;2023-07-13T15:04:09;30.70;1.00
11132;DHT22;5620;53.570;9.718;2023-07-13T15:06:54;33.10;99.90
11132;DHT22;5620;53.570;9.718;2023-07-13T15:09:20;33.50;99.90
11132;DHT22;5620;53.570;9.718;2023-07-13T15:11:46;31.70;99.90
11132;DHT22;5620;53.570;9.718;2023-07-13T15:14:13;30.10;99.90
11132;DHT22;5620;53.570;9.718;2023-07-13T15:16:39;28.90;99.90
11132;DHT22;5620;53.570;9.718;2023-07-13T15:19:04;28.00;99.90
11132;DHT22;5620;53.570;9.718;2023-07-13T15:21:32;27.30;99.90
11132;DHT22;5620;53.570;9.718;2023-07-13T15:24:00;26.90;99.90
11132;DHT22;5620;53.570;9.718;2023-07-13T15:26:25;26.90;99.90
11132;DHT22;5620;53.570;9.718;2023-07-13T15:28:53;27.20;99.90
11132;DHT22;5620;53.570;9.718;2023-07-13T15:31:22;27.60;99.90
11132;DHT22;5620;53.570;9.718;2023-07-13T15:33:53;28.60;99.90
11132;DHT22;5620;53.570;9.718;2023-07-13T15:36:24;30.10;99.90
11132;DHT22;5620;53.570;9.718;2023-07-13T15:38:52;33.00;99.90
11132;DHT22;5620;53.570;9.718;2023-07-13T15:41:22;32.70;99.90
11132;DHT22;5620;53.570;9.718;2023-07-13T15:43:53;31.20;99.90
11132;DHT22;5620;53.570;9.718;2023-07-13T15:46:22;31.70;99.90
11132;DHT22;5620;53.570;9.718;2023-07-13T15:48:51;30.50;99.90
11132;DHT22;5620;53.570;9.718;2023-07-13T15:51:26;28.70;99.90
11132;DHT22;5620;53.570;9.718;2023-07-13T15:53:56;27.10;99.90
11132;DHT22;5620;53.570;9.718;2023-07-13T15:56:25;25.90;99.90
11132;DHT22;5620;53.570;9.718;2023-07-13T15:58:55;25.00;99.90
11132;DHT22;5620;53.570;9.718;2023-07-13T16:01:22;24.10;99.90
11132;DHT22;5620;53.570;9.718;2023-07-13T16:03:49;23.40;99.90
11132;DHT22;5620;53.570;9.718;2023-07-13T16:06:35;22.80;1.00
11132;DHT22;5620;53.570;9.718;2023-07-13T16:09:03;22.10;1.00
11132;DHT22;5620;53.570;9.718;2023-07-13T16:11:35;21.10;1.00
11132;DHT22;5620;53.570;9.718;2023-07-13T16:14:01;20.20;1.00
11132;DHT22;5620;53.570;9.718;2023-07-13T16:16:34;19.90;1.00
11132;DHT22;5620;53.570;9.718;2023-07-13T16:19:05;19.90;1.00
11132;DHT22;5620;53.570;9.718;2023-07-13T16:21:35;19.90;1.00
11132;DHT22;5620;53.570;9.718;2023-07-13T16:24:02;19.80;1.00
11132;DHT22;5620;53.570;9.718;2023-07-13T16:26:35;19.90;1.00
11132;DHT22;5620;53.570;9.718;2023-07-13T16:29:01;20.70;1.00
11132;DHT22;5620;53.570;9.718;2023-07-13T16:31:30;21.00;1.00
11132;DHT22;5620;53.570;9.718;2023-07-13T16:33:57;21.10;1.00
11132;DHT22;5620;53.570;9.718;2023-07-13T16:36:25;21.30;1.00
11132;DHT22;5620;53.570;9.718;2023-07-13T16:38:51;21.80;1.00
11132;DHT22;5620;53.570;9.718;2023-07-13T16:41:18;21.90;1.00
11132;DHT22;5620;53.570;9.718;2023-07-13T16:43:46;21.70;1.00
11132;DHT22;5620;53.570;9.718;2023-07-13T16:46:22;21.50;1.00